sensor_id;sensor_type;location;lat;lon;timestamp;pressure;altitude;pressure_sealevel;temperature;humidity
40372;BME280;28564;53.346;-6.554;2022-10-16T00:00:48;99193.26;;;9.69;54.57
40372;BME280;28564;53.346;-6.554;2022-10-16T00:03:16;99193.16;;;9.87;54.52
40372;BME280;28564;53.346;-6.554;2022-10-16T00:05:43;99198.89;;;9.62;54.46
40372;BME280;28564;53.346;-6.554;2022-10-16T00:08:11;99199.63;;;9.58;54.45
40372;BME280;28564;53.346;-6.554;2022-10-16T00:10:39;99202.67;;;10.02;54.39
40372;BME280;28564;53.346;-6.554;2022-10-16T00:13:07;99209.23;;;9.97;54.53
40372;BME280;28564;53.346;-6.554;2022-10-16T00:15:37;99217.69;;;9.45;54.58
40372;BME280;28564;53.346;-6.554;2022-10-16T00:18:06;99220.58;;;9.94;54.64
40372;BME280;28564;53.346;-6.554;2022-10-16T00:20:45;99223.46;;;9.93;54.57
40372;BME280;28564;53.346;-6.554;2022-10-16T00:23:12;99229.58;;;9.90;54.63
40372;BME280;28564;53.346;-6.554;2022-10-16T00:25:40;99226.29;;;9.86;54.58
40372;BME280;28564;53.346;-6.554;2022-10-16T00:28:08;99228.42;;;9.57;54.67
40372;BME280;28564;53.346;-6.554;2022-10-16T00:30:37;99226.70;;;9.53;54.77
40372;BME280;28564;53.346;-6.554;2022-10-16T00:33:05;99229.42;;;9.50;54.87
40372;BME280;28564;53.346;-6.554;2022-10-16T00:35:32;99243.88;;;9.49;55.09
40372;BME280;28564;53.346;-6.554;2022-10-16T00:38:00;99250.79;;;9.73;55.13
40372;BME280;28564;53.346;-6.554;2022-10-16T00:40:27;99255.61;;;9.23;55.24
40372;BME280;28564;53.346;-6.554;2022-10-16T00:42:54;99263.07;;;9.70;55.32
40372;BME280;28564;53.346;-6.554;2022-10-16T00:45:22;99267.85;;;9.71;55.42
40372;BME280;28564;53.346;-6.554;2022-10-16T00:47:52;99273.11;;;9.69;55.46
40372;BME280;28564;53.346;-6.554;2022-10-16T00:50:27;99279.72;;;9.42;55.44
40372;BME280;28564;53.346;-6.554;2022-10-16T00:52:56;99278.89;;;9.67;55.47
40372;BME280;28564;53.346;-6.554;2022-10-16T00:55:25;99277.26;;;9.67;55.47
40372;BME280;28564;53.346;-6.554;2022-10-16T00:57:54;99275.53;;;9.66;55.46
40372;BME280;28564;53.346;-6.554;2022-10-16T01:00:24;99277.52;;;9.18;55.39
40372;BME280;28564;53.346;-6.554;2022-10-16T01:02:53;99277.83;;;9.66;55.37
40372;BME280;28564;53.346;-6.554;2022-10-16T01:05:21;99276.03;;;9.65;55.29
40372;BME280;28564;53.346;-6.554;2022-10-16T01:07:57;99285.59;;;9.38;55.21
40372;BME280;28564;53.346;-6.554;2022-10-16T01:10:32;99285.00;;;9.16;55.16
40372;BME280;28564;53.346;-6.554;2022-10-16T01:13:07;99286.58;;;9.61;55.13
40372;BME280;28564;53.346;-6.554;2022-10-16T01:15:40;99285.96;;;9.12;55.00
40372;BME280;28564;53.346;-6.554;2022-10-16T01:18:16;99293.60;;;9.30;54.96
40372;BME280;28564;53.346;-6.554;2022-10-16T01:20:50;99298.12;;;9.53;54.88
40372;BME280;28564;53.346;-6.554;2022-10-16T01:23:31;99299.04;;;9.50;54.83
40372;BME280;28564;53.346;-6.554;2022-10-16T01:26:14;99299.73;;;9.46;54.80
40372;BME280;28564;53.346;-6.554;2022-10-16T01:28:48;99295.82;;;9.17;54.72
40372;BME280;28564;53.346;-6.554;2022-10-16T01:31:19;99298.01;;;9.13;54.71
40372;BME280;28564;53.346;-6.554;2022-10-16T01:33:56;99312.84;;;9.39;54.72
40372;BME280;28564;53.346;-6.554;2022-10-16T01:36:28;99320.98;;;9.35;54.68
40372;BME280;28564;53.346;-6.554;2022-10-16T01:39:00;99325.97;;;9.31;54.62
40372;BME280;28564;53.346;-6.554;2022-10-16T01:41:33;99330.53;;;9.00;54.63
40372;BME280;28564;53.346;-6.554;2022-10-16T01:44:04;99339.85;;;9.24;54.60
40372;BME280;28564;53.346;-6.554;2022-10-16T01:46:36;99348.85;;;9.23;54.65
40372;BME280;28564;53.346;-6.554;2022-10-16T01:49:04;99356.25;;;9.22;54.55
40372;BME280;28564;53.346;-6.554;2022-10-16T01:51:32;99360.46;;;9.21;54.52
40372;BME280;28564;53.346;-6.554;2022-10-16T01:54:02;99365.53;;;9.23;54.44
40372;BME280;28564;53.346;-6.554;2022-10-16T01:56:32;99366.71;;;9.22;54.44
40372;BME280;28564;53.346;-6.554;2022-10-16T01:59:03;99369.65;;;9.23;54.44
40372;BME280;28564;53.346;-6.554;2022-10-16T02:01:34;99373.71;;;9.23;54.48
40372;BME280;28564;53.346;-6.554;2022-10-16T02:04:11;99373.59;;;8.75;54.42
40372;BME280;28564;53.346;-6.554;2022-10-16T02:06:39;99374.12;;;9.25;54.40
40372;BME280;28564;53.346;-6.554;2022-10-16T02:09:06;99379.41;;;9.26;54.45
40372;BME280;28564;53.346;-6.554;2022-10-16T02:11:33;99380.39;;;9.26;54.44
40372;BME280;28564;53.346;-6.554;2022-10-16T02:14:03;99386.02;;;9.22;54.44
40372;BME280;28564;53.346;-6.554;2022-10-16T02:16:34;99395.66;;;9.21;54.39
40372;BME280;28564;53.346;-6.554;2022-10-16T02:19:03;99395.40;;;9.20;54.37
40372;BME280;28564;53.346;-6.554;2022-10-16T02:21:35;99396.43;;;9.18;54.32
40372;BME280;28564;53.346;-6.554;2022-10-16T02:24:10;99402.37;;;9.17;54.33
40372;BME280;28564;53.346;-6.554;2022-10-16T02:26:45;99403.94;;;9.18;54.39
40372;BME280;28564;53.346;-6.554;2022-10-16T02:29:18;99405.93;;;9.17;54.36
40372;BME280;28564;53.346;-6.554;2022-10-16T02:31:53;99405.68;;;9.17;54.35
40372;BME280;28564;53.346;-6.554;2022-10-16T02:34:24;99413.01;;;9.16;54.36
40372;BME280;28564;53.346;-6.554;2022-10-16T02:36:53;99423.08;;;9.19;54.24
40372;BME280;28564;53.346;-6.554;2022-10-16T02:39:21;99420.81;;;9.16;54.19
40372;BME280;28564;53.346;-6.554;2022-10-16T02:41:49;99427.16;;;8.87;54.19
40372;BME280;28564;53.346;-6.554;2022-10-16T02:44:16;99433.34;;;9.10;54.17
40372;BME280;28564;53.346;-6.554;2022-10-16T02:46:43;99436.88;;;9.08;54.14
40372;BME280;28564;53.346;-6.554;2022-10-16T02:49:11;99437.52;;;9.04;54.11
40372;BME280;28564;53.346;-6.554;2022-10-16T02:51:38;99435.93;;;9.04;54.07
40372;BME280;28564;53.346;-6.554;2022-10-16T02:54:05;99444.38;;;9.00;54.02
40372;BME280;28564;53.346;-6.554;2022-10-16T02:56:33;99444.93;;;9.01;53.93
40372;BME280;28564;53.346;-6.554;2022-10-16T02:59:00;99446.66;;;9.00;53.79
40372;BME280;28564;53.346;-6.554;2022-10-16T03:01:27;99446.51;;;8.97;53.76
40372;BME280;28564;53.346;-6.554;2022-10-16T03:03:54;99448.42;;;8.93;53.74
40372;BME280;28564;53.346;-6.554;2022-10-16T03:06:22;99454.50;;;9.12;53.68
40372;BME280;28564;53.346;-6.554;2022-10-16T03:08:49;99463.22;;;8.90;53.61
40372;BME280;28564;53.346;-6.554;2022-10-16T03:11:16;99467.20;;;8.87;53.56
40372;BME280;28564;53.346;-6.554;2022-10-16T03:13:44;99465.33;;;9.07;53.51
40372;BME280;28564;53.346;-6.554;2022-10-16T03:16:11;99471.25;;;8.82;53.41
40372;BME280;28564;53.346;-6.554;2022-10-16T03:18:38;99473.42;;;9.01;53.38
40372;BME280;28564;53.346;-6.554;2022-10-16T03:21:06;99482.07;;;8.77;53.32
40372;BME280;28564;53.346;-6.554;2022-10-16T03:23:33;99486.46;;;8.76;53.23
40372;BME280;28564;53.346;-6.554;2022-10-16T03:26:01;99487.41;;;8.73;53.14
40372;BME280;28564;53.346;-6.554;2022-10-16T03:28:28;99496.93;;;8.95;53.09
40372;BME280;28564;53.346;-6.554;2022-10-16T03:30:55;99493.15;;;8.93;53.07
40372;BME280;28564;53.346;-6.554;2022-10-16T03:33:28;99495.61;;;8.90;53.02
40372;BME280;28564;53.346;-6.554;2022-10-16T03:35:55;99499.26;;;8.88;52.99
40372;BME280;28564;53.346;-6.554;2022-10-16T03:38:22;99500.45;;;8.86;52.96
40372;BME280;28564;53.346;-6.554;2022-10-16T03:40:50;99505.66;;;9.05;52.96
40372;BME280;28564;53.346;-6.554;2022-10-16T03:43:17;99508.59;;;8.60;52.98
40372;BME280;28564;53.346;-6.554;2022-10-16T03:45:50;99512.47;;;8.85;52.91
40372;BME280;28564;53.346;-6.554;2022-10-16T03:48:18;99517.52;;;8.63;52.83
40372;BME280;28564;53.346;-6.554;2022-10-16T03:50:45;99526.62;;;8.66;52.73
40372;BME280;28564;53.346;-6.554;2022-10-16T03:53:13;99527.89;;;8.90;52.64
40372;BME280;28564;53.346;-6.554;2022-10-16T03:55:41;99533.30;;;8.71;52.54
40372;BME280;28564;53.346;-6.554;2022-10-16T03:58:09;99540.04;;;8.94;52.42
40372;BME280;28564;53.346;-6.554;2022-10-16T04:00:40;99547.57;;;8.70;52.37
40372;BME280;28564;53.346;-6.554;2022-10-16T04:03:07;99560.85;;;8.91;52.38
40372;BME280;28564;53.346;-6.554;2022-10-16T04:05:34;99570.28;;;8.68;52.35
40372;BME280;28564;53.346;-6.554;2022-10-16T04:08:02;99580.16;;;8.86;52.38
40372;BME280;28564;53.346;-6.554;2022-10-16T04:10:29;99584.96;;;8.84;52.32
40372;BME280;28564;53.346;-6.554;2022-10-16T04:12:56;99586.03;;;8.58;52.28
40372;BME280;28564;53.346;-6.554;2022-10-16T04:15:25;99584.19;;;8.52;52.33
40372;BME280;28564;53.346;-6.554;2022-10-16T04:17:52;99590.44;;;8.92;52.38
40372;BME280;28564;53.346;-6.554;2022-10-16T04:20:20;99601.74;;;8.44;52.39
40372;BME280;28564;53.346;-6.554;2022-10-16T04:22:47;99602.35;;;8.40;52.37
40372;BME280;28564;53.346;-6.554;2022-10-16T04:25:14;99607.39;;;8.60;52.32
40372;BME280;28564;53.346;-6.554;2022-10-16T04:27:41;99615.19;;;8.58;52.29
40372;BME280;28564;53.346;-6.554;2022-10-16T04:30:11;99623.97;;;8.54;52.30
40372;BME280;28564;53.346;-6.554;2022-10-16T04:32:38;99633.10;;;8.29;52.31
40372;BME280;28564;53.346;-6.554;2022-10-16T04:35:07;99641.11;;;8.71;52.35
40372;BME280;28564;53.346;-6.554;2022-10-16T04:37:34;99650.04;;;8.45;52.40
40372;BME280;28564;53.346;-6.554;2022-10-16T04:40:02;99658.38;;;8.46;52.40
40372;BME280;28564;53.346;-6.554;2022-10-16T04:42:29;99660.49;;;8.70;52.39
40372;BME280;28564;53.346;-6.554;2022-10-16T04:44:56;99668.40;;;8.47;52.41
40372;BME280;28564;53.346;-6.554;2022-10-16T04:47:24;99670.87;;;8.48;52.36
40372;BME280;28564;53.346;-6.554;2022-10-16T04:49:52;99676.73;;;8.47;52.36
40372;BME280;28564;53.346;-6.554;2022-10-16T04:52:20;99681.83;;;8.23;52.38
40372;BME280;28564;53.346;-6.554;2022-10-16T04:54:48;99683.40;;;8.45;52.36
40372;BME280;28564;53.346;-6.554;2022-10-16T04:57:15;99690.39;;;8.47;52.35
40372;BME280;28564;53.346;-6.554;2022-10-16T04:59:42;99695.70;;;8.47;52.32
40372;BME280;28564;53.346;-6.554;2022-10-16T05:02:09;99699.23;;;8.50;52.22
40372;BME280;28564;53.346;-6.554;2022-10-16T05:04:37;99695.30;;;8.48;52.23
40372;BME280;28564;53.346;-6.554;2022-10-16T05:07:04;99696.64;;;8.48;52.26
40372;BME280;28564;53.346;-6.554;2022-10-16T05:09:31;99697.72;;;8.46;52.31
40372;BME280;28564;53.346;-6.554;2022-10-16T05:11:59;99693.62;;;8.46;52.31
40372;BME280;28564;53.346;-6.554;2022-10-16T05:14:26;99692.21;;;8.66;52.31
40372;BME280;28564;53.346;-6.554;2022-10-16T05:16:53;99692.73;;;8.43;52.36
40372;BME280;28564;53.346;-6.554;2022-10-16T05:19:21;99690.90;;;8.40;52.37
40372;BME280;28564;53.346;-6.554;2022-10-16T05:21:48;99692.84;;;8.38;52.47
40372;BME280;28564;53.346;-6.554;2022-10-16T05:24:16;99697.12;;;8.37;52.52
40372;BME280;28564;53.346;-6.554;2022-10-16T05:26:43;99699.85;;;8.34;52.57
40372;BME280;28564;53.346;-6.554;2022-10-16T05:29:10;99704.60;;;8.30;52.67
40372;BME280;28564;53.346;-6.554;2022-10-16T05:31:37;99716.17;;;8.26;52.70
40372;BME280;28564;53.346;-6.554;2022-10-16T05:34:05;99715.34;;;8.24;52.82
40372;BME280;28564;53.346;-6.554;2022-10-16T05:36:32;99716.01;;;8.22;52.97
40372;BME280;28564;53.346;-6.554;2022-10-16T05:38:59;99724.18;;;8.20;52.87
40372;BME280;28564;53.346;-6.554;2022-10-16T05:41:27;99727.77;;;8.38;52.82
40372;BME280;28564;53.346;-6.554;2022-10-16T05:44:04;99736.18;;;8.36;52.78
40372;BME280;28564;53.346;-6.554;2022-10-16T05:46:32;99738.80;;;8.36;52.73
40372;BME280;28564;53.346;-6.554;2022-10-16T05:48:59;99740.76;;;8.35;52.71
40372;BME280;28564;53.346;-6.554;2022-10-16T05:51:27;99746.65;;;8.13;52.76
40372;BME280;28564;53.346;-6.554;2022-10-16T05:53:55;99750.89;;;8.37;52.74
40372;BME280;28564;53.346;-6.554;2022-10-16T05:56:22;99756.43;;;8.38;52.76
40372;BME280;28564;53.346;-6.554;2022-10-16T05:58:49;99765.94;;;8.40;52.78
40372;BME280;28564;53.346;-6.554;2022-10-16T06:01:18;99765.34;;;8.41;52.77
40372;BME280;28564;53.346;-6.554;2022-10-16T06:03:47;99770.39;;;8.42;52.77
40372;BME280;28564;53.346;-6.554;2022-10-16T06:06:15;99770.88;;;8.46;52.79
40372;BME280;28564;53.346;-6.554;2022-10-16T06:08:44;99770.91;;;8.03;52.73
40372;BME280;28564;53.346;-6.554;2022-10-16T06:11:14;99771.47;;;8.49;52.69
40372;BME280;28564;53.346;-6.554;2022-10-16T06:13:41;99772.07;;;8.27;52.60
40372;BME280;28564;53.346;-6.554;2022-10-16T06:16:09;99770.86;;;8.49;52.61
40372;BME280;28564;53.346;-6.554;2022-10-16T06:18:37;99771.69;;;8.25;52.60
40372;BME280;28564;53.346;-6.554;2022-10-16T06:21:08;99769.95;;;8.47;52.59
40372;BME280;28564;53.346;-6.554;2022-10-16T06:23:36;99770.95;;;8.46;52.56
40372;BME280;28564;53.346;-6.554;2022-10-16T06:26:05;99772.47;;;8.19;52.54
40372;BME280;28564;53.346;-6.554;2022-10-16T06:28:33;99774.71;;;8.38;52.61
40372;BME280;28564;53.346;-6.554;2022-10-16T06:31:00;99774.36;;;8.39;52.57
40372;BME280;28564;53.346;-6.554;2022-10-16T06:33:28;99774.87;;;8.35;52.53
40372;BME280;28564;53.346;-6.554;2022-10-16T06:36:00;99779.33;;;7.86;52.63
40372;BME280;28564;53.346;-6.554;2022-10-16T06:38:27;99782.31;;;8.29;52.71
40372;BME280;28564;53.346;-6.554;2022-10-16T06:40:55;99782.69;;;8.30;52.71
40372;BME280;28564;53.346;-6.554;2022-10-16T06:43:23;99782.81;;;8.05;52.82
40372;BME280;28564;53.346;-6.554;2022-10-16T06:45:51;99784.54;;;8.29;52.82
40372;BME280;28564;53.346;-6.554;2022-10-16T06:48:19;99788.41;;;8.32;52.80
40372;BME280;28564;53.346;-6.554;2022-10-16T06:50:55;99794.79;;;8.32;52.80
40372;BME280;28564;53.346;-6.554;2022-10-16T06:53:23;99793.09;;;8.33;52.76
40372;BME280;28564;53.346;-6.554;2022-10-16T06:55:50;99793.64;;;8.11;52.73
40372;BME280;28564;53.346;-6.554;2022-10-16T06:58:18;99793.63;;;8.11;52.71
40372;BME280;28564;53.346;-6.554;2022-10-16T07:00:45;99793.10;;;8.35;52.67
40372;BME280;28564;53.346;-6.554;2022-10-16T07:03:13;99791.92;;;8.13;52.68
40372;BME280;28564;53.346;-6.554;2022-10-16T07:05:40;99789.89;;;8.14;52.65
40372;BME280;28564;53.346;-6.554;2022-10-16T07:08:08;99789.07;;;8.39;52.63
40372;BME280;28564;53.346;-6.554;2022-10-16T07:10:36;99787.21;;;8.19;52.57
40372;BME280;28564;53.346;-6.554;2022-10-16T07:13:03;99780.95;;;8.22;52.58
40372;BME280;28564;53.346;-6.554;2022-10-16T07:15:31;99783.81;;;8.27;52.49
40372;BME280;28564;53.346;-6.554;2022-10-16T07:17:58;99789.33;;;8.11;52.42
40372;BME280;28564;53.346;-6.554;2022-10-16T07:20:25;99795.84;;;8.38;52.43
40372;BME280;28564;53.346;-6.554;2022-10-16T07:22:53;99799.79;;;8.42;52.41
40372;BME280;28564;53.346;-6.554;2022-10-16T07:25:21;99809.41;;;8.48;52.31
40372;BME280;28564;53.346;-6.554;2022-10-16T07:27:48;99817.46;;;8.53;52.27
40372;BME280;28564;53.346;-6.554;2022-10-16T07:30:16;99827.44;;;8.38;52.18
40372;BME280;28564;53.346;-6.554;2022-10-16T07:32:43;99833.03;;;8.48;52.36
40372;BME280;28564;53.346;-6.554;2022-10-16T07:35:10;99833.83;;;8.59;52.23
40372;BME280;28564;53.346;-6.554;2022-10-16T07:37:37;99840.52;;;8.64;52.19
40372;BME280;28564;53.346;-6.554;2022-10-16T07:40:06;99846.62;;;8.71;51.98
40372;BME280;28564;53.346;-6.554;2022-10-16T07:42:33;99855.26;;;8.78;52.01
40372;BME280;28564;53.346;-6.554;2022-10-16T07:45:00;99868.29;;;8.86;51.83
40372;BME280;28564;53.346;-6.554;2022-10-16T07:47:28;99877.66;;;8.90;51.76
40372;BME280;28564;53.346;-6.554;2022-10-16T07:49:55;99887.21;;;8.98;51.88
40372;BME280;28564;53.346;-6.554;2022-10-16T07:52:22;99900.02;;;9.06;51.74
40372;BME280;28564;53.346;-6.554;2022-10-16T07:54:49;99911.26;;;9.12;51.65
40372;BME280;28564;53.346;-6.554;2022-10-16T07:57:17;99923.26;;;9.18;51.61
40372;BME280;28564;53.346;-6.554;2022-10-16T07:59:44;99927.19;;;9.47;51.55
40372;BME280;28564;53.346;-6.554;2022-10-16T08:02:12;99933.40;;;9.31;51.55
40372;BME280;28564;53.346;-6.554;2022-10-16T08:04:39;99933.66;;;9.41;51.50
40372;BME280;28564;53.346;-6.554;2022-10-16T08:07:07;99932.76;;;9.49;51.28
40372;BME280;28564;53.346;-6.554;2022-10-16T08:09:34;99935.80;;;9.58;51.17
40372;BME280;28564;53.346;-6.554;2022-10-16T08:12:02;99941.18;;;9.67;51.19
40372;BME280;28564;53.346;-6.554;2022-10-16T08:14:30;99935.08;;;9.50;51.21
40372;BME280;28564;53.346;-6.554;2022-10-16T08:16:57;99925.50;;;9.62;50.91
40372;BME280;28564;53.346;-6.554;2022-10-16T08:19:24;99927.07;;;9.71;50.81
40372;BME280;28564;53.346;-6.554;2022-10-16T08:21:51;99923.25;;;9.60;50.76
40372;BME280;28564;53.346;-6.554;2022-10-16T08:24:19;99922.11;;;9.93;50.63
40372;BME280;28564;53.346;-6.554;2022-10-16T08:26:46;99922.83;;;9.83;50.62
40372;BME280;28564;53.346;-6.554;2022-10-16T08:29:14;99921.40;;;10.45;50.52
40372;BME280;28564;53.346;-6.554;2022-10-16T08:31:41;99922.00;;;10.10;50.48
40372;BME280;28564;53.346;-6.554;2022-10-16T08:34:08;99920.82;;;10.23;50.30
40372;BME280;28564;53.346;-6.554;2022-10-16T08:36:35;99927.87;;;10.33;50.12
40372;BME280;28564;53.346;-6.554;2022-10-16T08:39:04;99932.59;;;10.44;49.98
40372;BME280;28564;53.346;-6.554;2022-10-16T08:41:59;99940.33;;;10.55;49.87
40372;BME280;28564;53.346;-6.554;2022-10-16T08:44:59;99950.13;;;10.73;49.71
40372;BME280;28564;53.346;-6.554;2022-10-16T08:47:40;99960.81;;;10.90;49.57
40372;BME280;28564;53.346;-6.554;2022-10-16T08:50:12;99961.78;;;10.57;49.46
40372;BME280;28564;53.346;-6.554;2022-10-16T08:52:43;99959.92;;;10.71;49.39
40372;BME280;28564;53.346;-6.554;2022-10-16T08:55:25;99958.98;;;10.87;49.37
40372;BME280;28564;53.346;-6.554;2022-10-16T08:57:56;99958.48;;;11.26;49.12
40372;BME280;28564;53.346;-6.554;2022-10-16T09:00:23;99960.18;;;11.15;48.85
40372;BME280;28564;53.346;-6.554;2022-10-16T09:02:55;99961.96;;;11.26;48.87
40372;BME280;28564;53.346;-6.554;2022-10-16T09:05:42;99962.86;;;11.38;48.81
40372;BME280;28564;53.346;-6.554;2022-10-16T09:08:19;99967.97;;;11.54;48.70
40372;BME280;28564;53.346;-6.554;2022-10-16T09:10:56;99976.99;;;11.63;48.60
40372;BME280;28564;53.346;-6.554;2022-10-16T09:13:28;99982.78;;;11.73;48.38
40372;BME280;28564;53.346;-6.554;2022-10-16T09:16:02;99988.12;;;11.80;48.51
40372;BME280;28564;53.346;-6.554;2022-10-16T09:18:40;99995.12;;;11.40;48.53
40372;BME280;28564;53.346;-6.554;2022-10-16T09:21:14;99997.89;;;11.77;48.26
40372;BME280;28564;53.346;-6.554;2022-10-16T09:23:44;99996.79;;;11.56;48.01
40372;BME280;28564;53.346;-6.554;2022-10-16T09:26:13;99997.82;;;11.84;48.02
40372;BME280;28564;53.346;-6.554;2022-10-16T09:28:41;99992.88;;;11.92;48.03
40372;BME280;28564;53.346;-6.554;2022-10-16T09:31:15;100000.42;;;11.98;48.04
40372;BME280;28564;53.346;-6.554;2022-10-16T09:33:44;100006.38;;;12.05;48.05
40372;BME280;28564;53.346;-6.554;2022-10-16T09:36:13;100006.18;;;11.87;47.99
40372;BME280;28564;53.346;-6.554;2022-10-16T09:38:41;100003.64;;;11.99;48.00
40372;BME280;28564;53.346;-6.554;2022-10-16T09:41:15;99999.13;;;12.08;47.84
40372;BME280;28564;53.346;-6.554;2022-10-16T09:43:48;99996.03;;;12.18;47.52
40372;BME280;28564;53.346;-6.554;2022-10-16T09:46:27;99992.50;;;12.29;47.30
40372;BME280;28564;53.346;-6.554;2022-10-16T09:48:56;99989.26;;;12.41;47.27
40372;BME280;28564;53.346;-6.554;2022-10-16T09:51:27;99986.11;;;12.57;47.41
40372;BME280;28564;53.346;-6.554;2022-10-16T09:53:58;99991.06;;;12.73;47.27
40372;BME280;28564;53.346;-6.554;2022-10-16T09:56:28;99994.28;;;12.89;47.24
40372;BME280;28564;53.346;-6.554;2022-10-16T09:58:57;99998.34;;;12.61;47.07
40372;BME280;28564;53.346;-6.554;2022-10-16T10:01:53;100009.43;;;13.25;47.03
40372;BME280;28564;53.346;-6.554;2022-10-16T10:04:23;100017.34;;;13.22;46.86
40372;BME280;28564;53.346;-6.554;2022-10-16T10:06:52;100021.85;;;13.16;46.58
40372;BME280;28564;53.346;-6.554;2022-10-16T10:09:22;100017.93;;;13.27;46.46
40372;BME280;28564;53.346;-6.554;2022-10-16T10:11:52;100010.96;;;13.41;46.38
40372;BME280;28564;53.346;-6.554;2022-10-16T10:14:23;100002.68;;;13.57;46.31
40372;BME280;28564;53.346;-6.554;2022-10-16T10:17:01;99989.96;;;13.69;46.18
40372;BME280;28564;53.346;-6.554;2022-10-16T10:19:28;99983.56;;;13.83;45.76
40372;BME280;28564;53.346;-6.554;2022-10-16T10:21:55;99985.84;;;13.90;45.77
40372;BME280;28564;53.346;-6.554;2022-10-16T10:24:22;99993.54;;;13.71;45.69
40372;BME280;28564;53.346;-6.554;2022-10-16T10:26:56;99999.02;;;13.99;45.60
40372;BME280;28564;53.346;-6.554;2022-10-16T10:29:35;99994.94;;;14.02;45.51
40372;BME280;28564;53.346;-6.554;2022-10-16T10:32:17;99986.32;;;13.74;45.42
40372;BME280;28564;53.346;-6.554;2022-10-16T10:34:58;99980.09;;;13.86;45.65
40372;BME280;28564;53.346;-6.554;2022-10-16T10:37:40;99972.50;;;13.79;45.25
40372;BME280;28564;53.346;-6.554;2022-10-16T10:40:30;99974.37;;;14.09;45.36
40372;BME280;28564;53.346;-6.554;2022-10-16T10:43:04;99987.37;;;13.91;45.22
40372;BME280;28564;53.346;-6.554;2022-10-16T10:45:42;99991.15;;;13.90;45.27
40372;BME280;28564;53.346;-6.554;2022-10-16T10:48:24;99996.72;;;14.10;45.44
40372;BME280;28564;53.346;-6.554;2022-10-16T10:50:56;100004.57;;;14.07;45.28
40372;BME280;28564;53.346;-6.554;2022-10-16T10:53:36;100008.74;;;13.80;45.49
40372;BME280;28564;53.346;-6.554;2022-10-16T10:56:17;100016.48;;;14.36;45.59
40372;BME280;28564;53.346;-6.554;2022-10-16T10:59:24;100025.19;;;14.14;45.65
40372;BME280;28564;53.346;-6.554;2022-10-16T11:01:58;100028.75;;;13.94;45.52
40372;BME280;28564;53.346;-6.554;2022-10-16T11:04:39;100027.21;;;14.00;45.71
40372;BME280;28564;53.346;-6.554;2022-10-16T11:07:13;100030.55;;;14.01;45.72
40372;BME280;28564;53.346;-6.554;2022-10-16T11:09:45;100030.99;;;14.00;45.74
40372;BME280;28564;53.346;-6.554;2022-10-16T11:12:18;100035.65;;;14.04;45.98
40372;BME280;28564;53.346;-6.554;2022-10-16T11:14:50;100040.03;;;14.10;46.07
40372;BME280;28564;53.346;-6.554;2022-10-16T11:17:25;100037.49;;;14.15;46.22
40372;BME280;28564;53.346;-6.554;2022-10-16T11:20:00;100039.02;;;14.20;46.18
40372;BME280;28564;53.346;-6.554;2022-10-16T11:22:33;100041.96;;;14.16;45.74
40372;BME280;28564;53.346;-6.554;2022-10-16T11:25:13;100037.21;;;14.12;46.09
40372;BME280;28564;53.346;-6.554;2022-10-16T11:27:47;100036.17;;;14.14;46.31
40372;BME280;28564;53.346;-6.554;2022-10-16T11:30:20;100034.04;;;14.64;46.31
40372;BME280;28564;53.346;-6.554;2022-10-16T11:33:00;100025.72;;;14.33;46.50
40372;BME280;28564;53.346;-6.554;2022-10-16T11:35:39;100017.54;;;14.41;46.67
40372;BME280;28564;53.346;-6.554;2022-10-16T11:38:13;100016.67;;;14.27;46.62
40372;BME280;28564;53.346;-6.554;2022-10-16T11:40:43;100013.14;;;14.31;46.56
40372;BME280;28564;53.346;-6.554;2022-10-16T11:43:15;100014.94;;;14.31;46.60
40372;BME280;28564;53.346;-6.554;2022-10-16T11:45:48;100008.87;;;14.36;46.74
40372;BME280;28564;53.346;-6.554;2022-10-16T11:48:23;100006.33;;;14.40;46.72
40372;BME280;28564;53.346;-6.554;2022-10-16T11:50:54;100002.61;;;14.41;46.44
40372;BME280;28564;53.346;-6.554;2022-10-16T11:53:35;99997.45;;;14.42;46.28
40372;BME280;28564;53.346;-6.554;2022-10-16T11:56:06;100006.41;;;14.43;46.37
40372;BME280;28564;53.346;-6.554;2022-10-16T11:58:37;100010.48;;;14.46;46.52
40372;BME280;28564;53.346;-6.554;2022-10-16T12:01:17;99998.81;;;14.47;46.37
40372;BME280;28564;53.346;-6.554;2022-10-16T12:03:53;99994.87;;;14.47;46.49
40372;BME280;28564;53.346;-6.554;2022-10-16T12:06:32;99981.17;;;14.42;46.28
40372;BME280;28564;53.346;-6.554;2022-10-16T12:09:01;99984.01;;;14.43;46.55
40372;BME280;28564;53.346;-6.554;2022-10-16T12:11:35;99980.01;;;14.46;46.59
40372;BME280;28564;53.346;-6.554;2022-10-16T12:14:07;99982.31;;;14.46;46.09
40372;BME280;28564;53.346;-6.554;2022-10-16T12:16:53;99970.87;;;14.41;46.08
40372;BME280;28564;53.346;-6.554;2022-10-16T12:19:21;99972.14;;;14.39;45.12
40372;BME280;28564;53.346;-6.554;2022-10-16T12:21:51;99970.30;;;14.36;44.74
40372;BME280;28564;53.346;-6.554;2022-10-16T12:24:27;99971.34;;;14.36;43.75
40372;BME280;28564;53.346;-6.554;2022-10-16T12:26:56;99970.40;;;14.57;43.06
40372;BME280;28564;53.346;-6.554;2022-10-16T12:29:34;99963.04;;;14.30;42.93
40372;BME280;28564;53.346;-6.554;2022-10-16T12:32:03;99963.95;;;14.24;42.67
40372;BME280;28564;53.346;-6.554;2022-10-16T12:34:38;99963.97;;;14.22;42.67
40372;BME280;28564;53.346;-6.554;2022-10-16T12:37:13;99968.65;;;14.27;42.81
40372;BME280;28564;53.346;-6.554;2022-10-16T12:39:42;99976.86;;;14.33;42.67
40372;BME280;28564;53.346;-6.554;2022-10-16T12:42:42;99980.58;;;14.34;42.17
40372;BME280;28564;53.346;-6.554;2022-10-16T12:45:28;99973.03;;;14.30;41.83
40372;BME280;28564;53.346;-6.554;2022-10-16T12:47:57;99975.37;;;14.03;41.57
40372;BME280;28564;53.346;-6.554;2022-10-16T12:50:30;99972.87;;;14.22;40.70
40372;BME280;28564;53.346;-6.554;2022-10-16T12:52:58;99966.38;;;14.13;40.40
40372;BME280;28564;53.346;-6.554;2022-10-16T12:55:26;99956.47;;;14.06;40.54
40372;BME280;28564;53.346;-6.554;2022-10-16T12:58:07;99951.79;;;14.00;40.90
40372;BME280;28564;53.346;-6.554;2022-10-16T13:00:43;99952.38;;;14.38;40.37
40372;BME280;28564;53.346;-6.554;2022-10-16T13:03:31;99951.28;;;13.80;40.49
40372;BME280;28564;53.346;-6.554;2022-10-16T13:06:14;99938.98;;;13.93;40.47
40372;BME280;28564;53.346;-6.554;2022-10-16T13:09:00;99935.89;;;14.11;40.39
40372;BME280;28564;53.346;-6.554;2022-10-16T13:11:41;99927.44;;;14.02;40.49
40372;BME280;28564;53.346;-6.554;2022-10-16T13:14:33;99920.44;;;13.95;40.65